Archival Weather

Heathrow

London, United Kingdom (EGLL)

Report from: Sunday, March 19, 2023 12:50 PM GMT
Current time: Saturday, June 22, 2024 2:04 AM BST

Current weather – Weather history – Daily summaries
Weather forecast

Temperature9.0°C (48.2°F)
Wind chill6.3°C (43.3°F)
Dew point3.0°C (37.4°F)
Winds 10 kts (5.1 m/s, 11.5 mph) West (270°)
Visibility6.2 mi. (10 km)
Clouds Ceiling: Overcast 3,100 ft. (945 m)
Altimeter30.03 in.Hg (1017 mB)
Relative humidity66 %
Density altitude-733 ft. (-224 m)
Remarks Fully automated report
Corrected report
No significant changes expected in the next two hours
Flight conditions Visual Meteorological Conditions
Raw dataCOR EGLL 191250Z AUTO 27010KT 9999 OVC031 09/03 Q1017 NOSIG
An error has occurred. This application may no longer respond until reloaded. Reload 🗙